sensor_id;sensor_type;location;lat;lon;timestamp;P1;durP1;ratioP1;P2;durP2;ratioP2
43819;SDS011;67762;52.476;6.046;2023-05-07T00:01:59;124.18;;;113.68;;
43819;SDS011;67762;52.476;6.046;2023-05-07T00:04:24;146.18;;;133.77;;
43819;SDS011;67762;52.476;6.046;2023-05-07T00:06:50;114.88;;;104.00;;
43819;SDS011;67762;52.476;6.046;2023-05-07T00:09:16;150.88;;;138.55;;
43819;SDS011;67762;52.476;6.046;2023-05-07T00:11:41;115.28;;;103.97;;
43819;SDS011;67762;52.476;6.046;2023-05-07T00:14:07;126.93;;;115.43;;
43819;SDS011;67762;52.476;6.046;2023-05-07T00:16:33;129.15;;;118.03;;
43819;SDS011;67762;52.476;6.046;2023-05-07T00:18:58;111.50;;;102.15;;
43819;SDS011;67762;52.476;6.046;2023-05-07T00:21:24;132.20;;;120.72;;
43819;SDS011;67762;52.476;6.046;2023-05-07T00:23:52;124.13;;;113.35;;
43819;SDS011;67762;52.476;6.046;2023-05-07T00:26:18;1509.57;;;758.92;;
43819;SDS011;67762;52.476;6.046;2023-05-07T00:28:47;108.75;;;98.93;;
43819;SDS011;67762;52.476;6.046;2023-05-07T00:31:12;99.75;;;90.45;;
43819;SDS011;67762;52.476;6.046;2023-05-07T00:33:38;113.95;;;104.40;;
43819;SDS011;67762;52.476;6.046;2023-05-07T00:36:04;93.32;;;84.00;;
43819;SDS011;67762;52.476;6.046;2023-05-07T00:38:30;93.53;;;84.10;;
43819;SDS011;67762;52.476;6.046;2023-05-07T00:40:55;106.10;;;96.90;;
43819;SDS011;67762;52.476;6.046;2023-05-07T00:43:21;97.72;;;88.30;;
43819;SDS011;67762;52.476;6.046;2023-05-07T00:45:47;98.32;;;89.55;;
43819;SDS011;67762;52.476;6.046;2023-05-07T00:48:12;146.77;;;135.25;;
43819;SDS011;67762;52.476;6.046;2023-05-07T00:50:38;106.53;;;95.97;;
43819;SDS011;67762;52.476;6.046;2023-05-07T00:53:04;99.72;;;90.57;;
43819;SDS011;67762;52.476;6.046;2023-05-07T00:55:30;110.63;;;100.63;;
43819;SDS011;67762;52.476;6.046;2023-05-07T00:57:56;94.47;;;86.95;;
43819;SDS011;67762;52.476;6.046;2023-05-07T01:00:21;132.73;;;121.25;;
43819;SDS011;67762;52.476;6.046;2023-05-07T01:02:47;133.65;;;122.28;;
43819;SDS011;67762;52.476;6.046;2023-05-07T01:05:14;131.05;;;120.63;;
43819;SDS011;67762;52.476;6.046;2023-05-07T01:07:42;107.40;;;97.80;;
43819;SDS011;67762;52.476;6.046;2023-05-07T01:10:09;114.25;;;103.90;;
43819;SDS011;67762;52.476;6.046;2023-05-07T01:12:36;122.88;;;112.47;;
43819;SDS011;67762;52.476;6.046;2023-05-07T01:15:03;117.10;;;107.05;;
43819;SDS011;67762;52.476;6.046;2023-05-07T01:17:34;117.78;;;108.13;;
43819;SDS011;67762;52.476;6.046;2023-05-07T01:20:01;125.28;;;115.00;;
43819;SDS011;67762;52.476;6.046;2023-05-07T01:22:48;138.35;;;126.97;;
43819;SDS011;67762;52.476;6.046;2023-05-07T01:25:14;138.20;;;127.07;;
43819;SDS011;67762;52.476;6.046;2023-05-07T01:27:46;121.38;;;111.03;;
43819;SDS011;67762;52.476;6.046;2023-05-07T01:30:11;116.05;;;105.38;;
43819;SDS011;67762;52.476;6.046;2023-05-07T01:33:20;117.85;;;107.13;;
43819;SDS011;67762;52.476;6.046;2023-05-07T01:35:40;150.27;;;138.02;;
43819;SDS011;67762;52.476;6.046;2023-05-07T01:38:09;124.80;;;113.75;;
43819;SDS011;67762;52.476;6.046;2023-05-07T01:40:35;231.70;;;215.35;;
43819;SDS011;67762;52.476;6.046;2023-05-07T01:43:04;142.07;;;130.25;;
43819;SDS011;67762;52.476;6.046;2023-05-07T01:45:32;158.20;;;144.68;;
43819;SDS011;67762;52.476;6.046;2023-05-07T01:48:01;144.02;;;131.07;;
43819;SDS011;67762;52.476;6.046;2023-05-07T01:50:28;114.55;;;102.70;;
43819;SDS011;67762;52.476;6.046;2023-05-07T01:52:54;129.90;;;118.20;;
43819;SDS011;67762;52.476;6.046;2023-05-07T01:55:20;129.10;;;116.18;;
43819;SDS011;67762;52.476;6.046;2023-05-07T01:57:46;253.05;;;234.20;;
43819;SDS011;67762;52.476;6.046;2023-05-07T02:00:12;138.13;;;125.80;;
43819;SDS011;67762;52.476;6.046;2023-05-07T02:02:44;1534.32;;;781.42;;
43819;SDS011;67762;52.476;6.046;2023-05-07T02:05:20;255.70;;;237.73;;
43819;SDS011;67762;52.476;6.046;2023-05-07T02:07:52;126.82;;;114.45;;
43819;SDS011;67762;52.476;6.046;2023-05-07T02:10:18;609.08;;;348.73;;
43819;SDS011;67762;52.476;6.046;2023-05-07T02:12:43;166.90;;;153.73;;
43819;SDS011;67762;52.476;6.046;2023-05-07T02:15:09;143.23;;;130.20;;
43819;SDS011;67762;52.476;6.046;2023-05-07T02:17:38;134.57;;;121.95;;
43819;SDS011;67762;52.476;6.046;2023-05-07T02:20:23;143.18;;;128.70;;
43819;SDS011;67762;52.476;6.046;2023-05-07T02:22:49;150.68;;;137.25;;
43819;SDS011;67762;52.476;6.046;2023-05-07T02:25:15;163.70;;;147.32;;
43819;SDS011;67762;52.476;6.046;2023-05-07T02:27:40;138.73;;;124.78;;
43819;SDS011;67762;52.476;6.046;2023-05-07T02:30:06;180.38;;;165.32;;
43819;SDS011;67762;52.476;6.046;2023-05-07T02:32:32;173.18;;;158.68;;
43819;SDS011;67762;52.476;6.046;2023-05-07T02:34:58;187.32;;;171.70;;
43819;SDS011;67762;52.476;6.046;2023-05-07T02:37:24;124.72;;;114.35;;
43819;SDS011;67762;52.476;6.046;2023-05-07T02:39:49;132.25;;;120.53;;
43819;SDS011;67762;52.476;6.046;2023-05-07T02:42:15;131.57;;;119.70;;
43819;SDS011;67762;52.476;6.046;2023-05-07T02:44:41;97.82;;;90.22;;
43819;SDS011;67762;52.476;6.046;2023-05-07T02:47:07;1527.85;;;775.60;;
43819;SDS011;67762;52.476;6.046;2023-05-07T02:49:34;1531.82;;;779.28;;
43819;SDS011;67762;52.476;6.046;2023-05-07T02:52:00;173.48;;;158.35;;
43819;SDS011;67762;52.476;6.046;2023-05-07T02:54:26;135.73;;;123.55;;
43819;SDS011;67762;52.476;6.046;2023-05-07T02:56:52;1046.15;;;542.60;;
43819;SDS011;67762;52.476;6.046;2023-05-07T02:59:17;617.83;;;358.48;;
43819;SDS011;67762;52.476;6.046;2023-05-07T03:01:43;147.80;;;136.40;;
43819;SDS011;67762;52.476;6.046;2023-05-07T03:04:10;1067.10;;;562.08;;
43819;SDS011;67762;52.476;6.046;2023-05-07T03:06:36;139.75;;;129.65;;
43819;SDS011;67762;52.476;6.046;2023-05-07T03:09:02;1518.13;;;766.67;;
43819;SDS011;67762;52.476;6.046;2023-05-07T03:11:29;1521.72;;;769.97;;
43819;SDS011;67762;52.476;6.046;2023-05-07T03:13:54;134.23;;;124.38;;
43819;SDS011;67762;52.476;6.046;2023-05-07T03:16:21;1999.90;;;999.90;;
43819;SDS011;67762;52.476;6.046;2023-05-07T03:18:47;1520.38;;;768.95;;
43819;SDS011;67762;52.476;6.046;2023-05-07T03:21:12;1999.90;;;999.90;;
43819;SDS011;67762;52.476;6.046;2023-05-07T03:23:38;1999.90;;;999.90;;
43819;SDS011;67762;52.476;6.046;2023-05-07T03:26:04;1517.47;;;766.35;;
43819;SDS011;67762;52.476;6.046;2023-05-07T03:28:29;1999.90;;;999.90;;
43819;SDS011;67762;52.476;6.046;2023-05-07T03:30:59;587.20;;;330.77;;
43819;SDS011;67762;52.476;6.046;2023-05-07T03:33:25;129.48;;;120.13;;
43819;SDS011;67762;52.476;6.046;2023-05-07T03:35:50;83.72;;;78.07;;
43819;SDS011;67762;52.476;6.046;2023-05-07T03:38:21;1999.90;;;999.90;;
43819;SDS011;67762;52.476;6.046;2023-05-07T03:40:46;1024.75;;;523.03;;
43819;SDS011;67762;52.476;6.046;2023-05-07T03:43:12;556.05;;;302.30;;
43819;SDS011;67762;52.476;6.046;2023-05-07T03:45:42;1510.90;;;760.13;;
43819;SDS011;67762;52.476;6.046;2023-05-07T03:48:15;1999.90;;;999.90;;
43819;SDS011;67762;52.476;6.046;2023-05-07T03:50:41;1999.90;;;999.90;;
43819;SDS011;67762;52.476;6.046;2023-05-07T03:53:07;1999.90;;;999.90;;
43819;SDS011;67762;52.476;6.046;2023-05-07T03:55:37;1999.90;;;999.90;;
43819;SDS011;67762;52.476;6.046;2023-05-07T03:58:03;1999.90;;;999.90;;
43819;SDS011;67762;52.476;6.046;2023-05-07T04:00:28;1999.90;;;999.90;;
43819;SDS011;67762;52.476;6.046;2023-05-07T04:02:58;1999.90;;;999.90;;
43819;SDS011;67762;52.476;6.046;2023-05-07T04:05:26;1032.68;;;530.47;;
43819;SDS011;67762;52.476;6.046;2023-05-07T04:07:59;1999.90;;;999.90;;
43819;SDS011;67762;52.476;6.046;2023-05-07T04:10:34;1999.90;;;999.90;;
43819;SDS011;67762;52.476;6.046;2023-05-07T04:13:03;1999.90;;;999.90;;
43819;SDS011;67762;52.476;6.046;2023-05-07T04:15:29;1517.75;;;766.50;;
43819;SDS011;67762;52.476;6.046;2023-05-07T04:17:55;1999.90;;;999.90;;
43819;SDS011;67762;52.476;6.046;2023-05-07T04:20:23;1999.90;;;999.90;;
43819;SDS011;67762;52.476;6.046;2023-05-07T04:22:55;1516.35;;;765.15;;
43819;SDS011;67762;52.476;6.046;2023-05-07T04:25:21;1999.90;;;999.90;;
43819;SDS011;67762;52.476;6.046;2023-05-07T04:27:56;1999.90;;;999.90;;
43819;SDS011;67762;52.476;6.046;2023-05-07T04:30:25;1999.90;;;999.90;;
43819;SDS011;67762;52.476;6.046;2023-05-07T04:32:51;1999.90;;;999.90;;
43819;SDS011;67762;52.476;6.046;2023-05-07T04:35:18;1999.90;;;999.90;;
43819;SDS011;67762;52.476;6.046;2023-05-07T04:37:44;1999.90;;;999.90;;
43819;SDS011;67762;52.476;6.046;2023-05-07T04:40:11;1999.90;;;999.90;;
43819;SDS011;67762;52.476;6.046;2023-05-07T04:42:37;1999.90;;;999.90;;
43819;SDS011;67762;52.476;6.046;2023-05-07T04:45:03;1999.90;;;999.90;;
43819;SDS011;67762;52.476;6.046;2023-05-07T04:47:32;1999.90;;;999.90;;
43819;SDS011;67762;52.476;6.046;2023-05-07T04:49:59;1999.90;;;999.90;;
43819;SDS011;67762;52.476;6.046;2023-05-07T04:52:24;1999.90;;;999.90;;
43819;SDS011;67762;52.476;6.046;2023-05-07T04:54:51;1999.90;;;999.90;;
43819;SDS011;67762;52.476;6.046;2023-05-07T04:57:16;1999.90;;;999.90;;
43819;SDS011;67762;52.476;6.046;2023-05-07T04:59:43;1999.90;;;999.90;;
43819;SDS011;67762;52.476;6.046;2023-05-07T05:02:12;1999.90;;;999.90;;
43819;SDS011;67762;52.476;6.046;2023-05-07T05:04:38;1999.90;;;999.90;;
43819;SDS011;67762;52.476;6.046;2023-05-07T05:07:04;1999.90;;;999.90;;
43819;SDS011;67762;52.476;6.046;2023-05-07T05:09:30;1999.90;;;999.90;;
43819;SDS011;67762;52.476;6.046;2023-05-07T05:11:56;1999.90;;;999.90;;
43819;SDS011;67762;52.476;6.046;2023-05-07T05:14:22;1999.90;;;999.90;;
43819;SDS011;67762;52.476;6.046;2023-05-07T05:16:49;1999.90;;;999.90;;
43819;SDS011;67762;52.476;6.046;2023-05-07T05:19:15;1999.90;;;999.90;;
43819;SDS011;67762;52.476;6.046;2023-05-07T05:21:42;1999.90;;;999.90;;
43819;SDS011;67762;52.476;6.046;2023-05-07T05:24:09;1999.90;;;999.90;;
43819;SDS011;67762;52.476;6.046;2023-05-07T05:26:34;1999.90;;;999.90;;
43819;SDS011;67762;52.476;6.046;2023-05-07T05:29:01;1999.90;;;999.90;;
43819;SDS011;67762;52.476;6.046;2023-05-07T05:31:28;1999.90;;;999.90;;
43819;SDS011;67762;52.476;6.046;2023-05-07T05:33:55;1999.90;;;999.90;;
43819;SDS011;67762;52.476;6.046;2023-05-07T05:36:20;1999.90;;;999.90;;
43819;SDS011;67762;52.476;6.046;2023-05-07T05:38:48;1999.90;;;999.90;;
43819;SDS011;67762;52.476;6.046;2023-05-07T05:41:14;1999.90;;;999.90;;
43819;SDS011;67762;52.476;6.046;2023-05-07T05:43:40;1999.90;;;999.90;;
43819;SDS011;67762;52.476;6.046;2023-05-07T05:46:06;1999.90;;;999.90;;
43819;SDS011;67762;52.476;6.046;2023-05-07T05:48:33;1999.90;;;999.90;;
43819;SDS011;67762;52.476;6.046;2023-05-07T05:51:00;1999.90;;;999.90;;
43819;SDS011;67762;52.476;6.046;2023-05-07T05:53:26;1999.90;;;999.90;;
43819;SDS011;67762;52.476;6.046;2023-05-07T05:55:52;1999.90;;;999.90;;
43819;SDS011;67762;52.476;6.046;2023-05-07T05:58:18;1999.90;;;999.90;;
43819;SDS011;67762;52.476;6.046;2023-05-07T06:00:50;1999.90;;;999.90;;
43819;SDS011;67762;52.476;6.046;2023-05-07T06:03:18;1999.90;;;999.90;;
43819;SDS011;67762;52.476;6.046;2023-05-07T06:05:44;1999.90;;;999.90;;
43819;SDS011;67762;52.476;6.046;2023-05-07T06:08:11;1999.90;;;999.90;;
43819;SDS011;67762;52.476;6.046;2023-05-07T06:10:37;1999.90;;;999.90;;
43819;SDS011;67762;52.476;6.046;2023-05-07T06:13:05;1999.90;;;999.90;;
43819;SDS011;67762;52.476;6.046;2023-05-07T06:15:32;1999.90;;;999.90;;
43819;SDS011;67762;52.476;6.046;2023-05-07T06:18:03;1999.90;;;999.90;;
43819;SDS011;67762;52.476;6.046;2023-05-07T06:20:29;1999.90;;;999.90;;
43819;SDS011;67762;52.476;6.046;2023-05-07T06:22:56;1999.90;;;999.90;;
43819;SDS011;67762;52.476;6.046;2023-05-07T06:25:21;1999.90;;;999.90;;
43819;SDS011;67762;52.476;6.046;2023-05-07T06:27:47;1999.90;;;999.90;;
43819;SDS011;67762;52.476;6.046;2023-05-07T06:30:13;1999.90;;;999.90;;
43819;SDS011;67762;52.476;6.046;2023-05-07T06:32:40;1999.90;;;999.90;;
43819;SDS011;67762;52.476;6.046;2023-05-07T06:35:06;1999.90;;;999.90;;
43819;SDS011;67762;52.476;6.046;2023-05-07T06:37:35;1999.90;;;999.90;;
43819;SDS011;67762;52.476;6.046;2023-05-07T06:40:05;1999.90;;;999.90;;
43819;SDS011;67762;52.476;6.046;2023-05-07T06:42:35;1999.90;;;999.90;;
43819;SDS011;67762;52.476;6.046;2023-05-07T06:45:20;1999.90;;;999.90;;
43819;SDS011;67762;52.476;6.046;2023-05-07T06:47:46;1999.90;;;999.90;;
43819;SDS011;67762;52.476;6.046;2023-05-07T06:50:13;1999.90;;;999.90;;
43819;SDS011;67762;52.476;6.046;2023-05-07T06:52:42;1999.90;;;999.90;;
43819;SDS011;67762;52.476;6.046;2023-05-07T06:55:08;1999.90;;;999.90;;
43819;SDS011;67762;52.476;6.046;2023-05-07T06:57:34;1999.90;;;999.90;;
43819;SDS011;67762;52.476;6.046;2023-05-07T07:00:00;1999.90;;;999.90;;
43819;SDS011;67762;52.476;6.046;2023-05-07T07:02:26;1999.90;;;999.90;;
43819;SDS011;67762;52.476;6.046;2023-05-07T07:04:51;1999.90;;;999.90;;
43819;SDS011;67762;52.476;6.046;2023-05-07T07:07:18;1999.90;;;999.90;;
43819;SDS011;67762;52.476;6.046;2023-05-07T07:09:46;1999.90;;;999.90;;
43819;SDS011;67762;52.476;6.046;2023-05-07T07:12:15;1999.90;;;999.90;;
43819;SDS011;67762;52.476;6.046;2023-05-07T07:14:41;1999.90;;;999.90;;
43819;SDS011;67762;52.476;6.046;2023-05-07T07:17:07;1999.90;;;999.90;;
43819;SDS011;67762;52.476;6.046;2023-05-07T07:19:33;1999.90;;;999.90;;
43819;SDS011;67762;52.476;6.046;2023-05-07T07:22:01;1999.90;;;999.90;;
43819;SDS011;67762;52.476;6.046;2023-05-07T07:24:27;1999.90;;;999.90;;
43819;SDS011;67762;52.476;6.046;2023-05-07T07:26:56;1999.90;;;999.90;;
43819;SDS011;67762;52.476;6.046;2023-05-07T07:29:24;1999.90;;;999.90;;
43819;SDS011;67762;52.476;6.046;2023-05-07T07:31:51;1999.90;;;999.90;;
43819;SDS011;67762;52.476;6.046;2023-05-07T07:34:19;1999.90;;;999.90;;
43819;SDS011;67762;52.476;6.046;2023-05-07T07:36:44;1999.90;;;999.90;;
43819;SDS011;67762;52.476;6.046;2023-05-07T07:39:10;1999.90;;;999.90;;
43819;SDS011;67762;52.476;6.046;2023-05-07T07:41:36;1999.90;;;999.90;;
43819;SDS011;67762;52.476;6.046;2023-05-07T07:44:02;1999.90;;;999.90;;
43819;SDS011;67762;52.476;6.046;2023-05-07T07:46:29;1999.90;;;999.90;;
43819;SDS011;67762;52.476;6.046;2023-05-07T07:48:55;1999.90;;;999.90;;
43819;SDS011;67762;52.476;6.046;2023-05-07T07:51:23;1999.90;;;999.90;;
43819;SDS011;67762;52.476;6.046;2023-05-07T07:53:49;1999.90;;;999.90;;
43819;SDS011;67762;52.476;6.046;2023-05-07T07:56:16;1999.90;;;999.90;;
43819;SDS011;67762;52.476;6.046;2023-05-07T07:58:42;1999.90;;;999.90;;
43819;SDS011;67762;52.476;6.046;2023-05-07T08:01:07;1999.90;;;999.90;;
43819;SDS011;67762;52.476;6.046;2023-05-07T08:03:33;1999.90;;;999.90;;
43819;SDS011;67762;52.476;6.046;2023-05-07T08:06:00;1999.90;;;999.90;;
43819;SDS011;67762;52.476;6.046;2023-05-07T08:08:26;1999.90;;;999.90;;
43819;SDS011;67762;52.476;6.046;2023-05-07T08:10:53;1999.90;;;999.90;;
43819;SDS011;67762;52.476;6.046;2023-05-07T08:13:26;1999.90;;;999.90;;
43819;SDS011;67762;52.476;6.046;2023-05-07T08:15:51;1999.90;;;999.90;;
43819;SDS011;67762;52.476;6.046;2023-05-07T08:18:18;1999.90;;;999.90;;
43819;SDS011;67762;52.476;6.046;2023-05-07T08:20:44;1999.90;;;999.90;;
43819;SDS011;67762;52.476;6.046;2023-05-07T08:23:14;1999.90;;;999.90;;
43819;SDS011;67762;52.476;6.046;2023-05-07T08:25:41;1999.90;;;999.90;;
43819;SDS011;67762;52.476;6.046;2023-05-07T08:28:08;1999.90;;;999.90;;
43819;SDS011;67762;52.476;6.046;2023-05-07T08:30:34;1999.90;;;999.90;;
43819;SDS011;67762;52.476;6.046;2023-05-07T08:33:00;1999.90;;;999.90;;
43819;SDS011;67762;52.476;6.046;2023-05-07T08:35:26;1999.90;;;999.90;;
43819;SDS011;67762;52.476;6.046;2023-05-07T08:37:53;1999.90;;;999.90;;
43819;SDS011;67762;52.476;6.046;2023-05-07T08:40:20;1999.90;;;999.90;;
43819;SDS011;67762;52.476;6.046;2023-05-07T08:42:51;1999.90;;;999.90;;
43819;SDS011;67762;52.476;6.046;2023-05-07T08:45:19;1999.90;;;999.90;;
43819;SDS011;67762;52.476;6.046;2023-05-07T08:47:52;1999.90;;;999.90;;
43819;SDS011;67762;52.476;6.046;2023-05-07T08:50:25;1999.90;;;999.90;;
43819;SDS011;67762;52.476;6.046;2023-05-07T08:52:52;1999.90;;;999.90;;
43819;SDS011;67762;52.476;6.046;2023-05-07T08:55:19;1999.90;;;999.90;;
43819;SDS011;67762;52.476;6.046;2023-05-07T08:57:46;1999.90;;;999.90;;
43819;SDS011;67762;52.476;6.046;2023-05-07T09:00:14;1999.90;;;999.90;;
43819;SDS011;67762;52.476;6.046;2023-05-07T09:02:41;1999.90;;;999.90;;
43819;SDS011;67762;52.476;6.046;2023-05-07T09:05:08;1999.90;;;999.90;;
43819;SDS011;67762;52.476;6.046;2023-05-07T09:07:35;1999.90;;;999.90;;
43819;SDS011;67762;52.476;6.046;2023-05-07T09:10:05;1999.90;;;999.90;;
43819;SDS011;67762;52.476;6.046;2023-05-07T09:12:34;1999.90;;;999.90;;
43819;SDS011;67762;52.476;6.046;2023-05-07T09:15:03;1999.90;;;999.90;;
43819;SDS011;67762;52.476;6.046;2023-05-07T09:17:31;1999.90;;;999.90;;
43819;SDS011;67762;52.476;6.046;2023-05-07T09:20:01;1999.90;;;999.90;;
43819;SDS011;67762;52.476;6.046;2023-05-07T09:22:33;1999.90;;;999.90;;
43819;SDS011;67762;52.476;6.046;2023-05-07T09:25:06;1999.90;;;999.90;;
43819;SDS011;67762;52.476;6.046;2023-05-07T09:27:37;1999.90;;;999.90;;
43819;SDS011;67762;52.476;6.046;2023-05-07T09:30:07;1999.90;;;999.90;;
43819;SDS011;67762;52.476;6.046;2023-05-07T09:32:34;1999.90;;;999.90;;
43819;SDS011;67762;52.476;6.046;2023-05-07T09:35:05;1999.90;;;999.90;;
43819;SDS011;67762;52.476;6.046;2023-05-07T09:37:31;1999.90;;;999.90;;
43819;SDS011;67762;52.476;6.046;2023-05-07T09:39:57;1999.90;;;999.90;;
43819;SDS011;67762;52.476;6.046;2023-05-07T09:42:25;1999.90;;;999.90;;
43819;SDS011;67762;52.476;6.046;2023-05-07T09:44:54;358.10;;;329.08;;
43819;SDS011;67762;52.476;6.046;2023-05-07T09:47:24;1999.90;;;999.90;;
43819;SDS011;67762;52.476;6.046;2023-05-07T09:49:54;1999.90;;;999.90;;
43819;SDS011;67762;52.476;6.046;2023-05-07T09:52:23;1999.90;;;999.90;;
43819;SDS011;67762;52.476;6.046;2023-05-07T09:54:53;1999.90;;;999.90;;
43819;SDS011;67762;52.476;6.046;2023-05-07T09:57:25;1999.90;;;999.90;;
43819;SDS011;67762;52.476;6.046;2023-05-07T09:59:57;1999.90;;;999.90;;
43819;SDS011;67762;52.476;6.046;2023-05-07T10:02:26;1999.90;;;999.90;;
43819;SDS011;67762;52.476;6.046;2023-05-07T10:04:56;1999.90;;;999.90;;
43819;SDS011;67762;52.476;6.046;2023-05-07T10:07:27;1999.90;;;999.90;;
43819;SDS011;67762;52.476;6.046;2023-05-07T10:09:57;1999.90;;;999.90;;
43819;SDS011;67762;52.476;6.046;2023-05-07T10:12:32;1999.90;;;999.90;;
43819;SDS011;67762;52.476;6.046;2023-05-07T10:15:06;1999.90;;;999.90;;
43819;SDS011;67762;52.476;6.046;2023-05-07T10:17:34;1999.90;;;999.90;;
43819;SDS011;67762;52.476;6.046;2023-05-07T10:20:01;1999.90;;;999.90;;
43819;SDS011;67762;52.476;6.046;2023-05-07T10:22:27;1999.90;;;999.90;;
43819;SDS011;67762;52.476;6.046;2023-05-07T10:24:56;1999.90;;;999.90;;
43819;SDS011;67762;52.476;6.046;2023-05-07T10:27:25;1999.90;;;999.90;;
43819;SDS011;67762;52.476;6.046;2023-05-07T10:30:00;1999.90;;;999.90;;
43819;SDS011;67762;52.476;6.046;2023-05-07T10:32:42;1565.65;;;811.92;;
43819;SDS011;67762;52.476;6.046;2023-05-07T10:35:24;384.50;;;354.75;;
43819;SDS011;67762;52.476;6.046;2023-05-07T10:37:56;1999.90;;;999.90;;
43819;SDS011;67762;52.476;6.046;2023-05-07T10:40:24;1999.90;;;999.90;;
43819;SDS011;67762;52.476;6.046;2023-05-07T10:43:02;1999.90;;;999.90;;
43819;SDS011;67762;52.476;6.046;2023-05-07T10:45:35;1999.90;;;999.90;;
43819;SDS011;67762;52.476;6.046;2023-05-07T10:50:34;1999.90;;;999.90;;
43819;SDS011;67762;52.476;6.046;2023-05-07T10:55:52;1999.90;;;999.90;;
43819;SDS011;67762;52.476;6.046;2023-05-07T10:58:47;1999.90;;;999.90;;
43819;SDS011;67762;52.476;6.046;2023-05-07T11:01:49;1999.90;;;999.90;;
43819;SDS011;67762;52.476;6.046;2023-05-07T11:04:17;1999.90;;;999.90;;
43819;SDS011;67762;52.476;6.046;2023-05-07T11:07:13;1999.90;;;999.90;;
43819;SDS011;67762;52.476;6.046;2023-05-07T11:09:57;1999.90;;;999.90;;
43819;SDS011;67762;52.476;6.046;2023-05-07T11:15:14;1999.90;;;999.90;;
43819;SDS011;67762;52.476;6.046;2023-05-07T11:17:54;1999.90;;;999.90;;
43819;SDS011;67762;52.476;6.046;2023-05-07T11:26:19;1999.90;;;999.90;;
43819;SDS011;67762;52.476;6.046;2023-05-07T11:28:47;1999.90;;;999.90;;
43819;SDS011;67762;52.476;6.046;2023-05-07T11:31:13;1999.90;;;999.90;;
43819;SDS011;67762;52.476;6.046;2023-05-07T11:33:40;1999.90;;;999.90;;
43819;SDS011;67762;52.476;6.046;2023-05-07T11:36:10;1530.30;;;777.67;;
43819;SDS011;67762;52.476;6.046;2023-05-07T11:38:41;1999.90;;;999.90;;
43819;SDS011;67762;52.476;6.046;2023-05-07T11:41:07;1999.90;;;999.90;;
43819;SDS011;67762;52.476;6.046;2023-05-07T11:43:33;1999.90;;;999.90;;
43819;SDS011;67762;52.476;6.046;2023-05-07T11:46:10;1999.90;;;999.90;;
43819;SDS011;67762;52.476;6.046;2023-05-07T11:48:37;1999.90;;;999.90;;
43819;SDS011;67762;52.476;6.046;2023-05-07T11:51:04;1999.90;;;999.90;;
43819;SDS011;67762;52.476;6.046;2023-05-07T11:53:38;1999.90;;;999.90;;
43819;SDS011;67762;52.476;6.046;2023-05-07T11:58:38;1999.90;;;999.90;;
43819;SDS011;67762;52.476;6.046;2023-05-07T12:01:07;1999.90;;;999.90;;
43819;SDS011;67762;52.476;6.046;2023-05-07T12:03:34;1999.90;;;999.90;;
43819;SDS011;67762;52.476;6.046;2023-05-07T12:06:02;1999.90;;;999.90;;
43819;SDS011;67762;52.476;6.046;2023-05-07T12:08:31;1999.90;;;999.90;;
43819;SDS011;67762;52.476;6.046;2023-05-07T12:10:57;1999.90;;;999.90;;
43819;SDS011;67762;52.476;6.046;2023-05-07T12:13:25;1999.90;;;999.90;;
43819;SDS011;67762;52.476;6.046;2023-05-07T12:15:51;1999.90;;;999.90;;
43819;SDS011;67762;52.476;6.046;2023-05-07T12:18:18;1999.90;;;999.90;;
43819;SDS011;67762;52.476;6.046;2023-05-07T12:20:45;1999.90;;;999.90;;
43819;SDS011;67762;52.476;6.046;2023-05-07T12:23:11;1999.90;;;999.90;;
43819;SDS011;67762;52.476;6.046;2023-05-07T12:25:38;1999.90;;;999.90;;
43819;SDS011;67762;52.476;6.046;2023-05-07T12:28:07;1999.90;;;999.90;;
43819;SDS011;67762;52.476;6.046;2023-05-07T12:30:39;1999.90;;;999.90;;
43819;SDS011;67762;52.476;6.046;2023-05-07T12:33:05;1999.90;;;999.90;;
43819;SDS011;67762;52.476;6.046;2023-05-07T12:35:32;1999.90;;;999.90;;
43819;SDS011;67762;52.476;6.046;2023-05-07T12:38:02;1999.90;;;999.90;;
43819;SDS011;67762;52.476;6.046;2023-05-07T12:40:39;1999.90;;;999.90;;
43819;SDS011;67762;52.476;6.046;2023-05-07T12:43:06;1999.90;;;999.90;;
43819;SDS011;67762;52.476;6.046;2023-05-07T12:45:39;1999.90;;;999.90;;
43819;SDS011;67762;52.476;6.046;2023-05-07T12:48:06;1999.90;;;999.90;;
43819;SDS011;67762;52.476;6.046;2023-05-07T12:50:34;1999.90;;;999.90;;
43819;SDS011;67762;52.476;6.046;2023-05-07T12:53:05;1999.90;;;999.90;;
43819;SDS011;67762;52.476;6.046;2023-05-07T12:55:43;1999.90;;;999.90;;
43819;SDS011;67762;52.476;6.046;2023-05-07T13:00:42;1999.90;;;999.90;;
43819;SDS011;67762;52.476;6.046;2023-05-07T13:03:08;1999.90;;;999.90;;
43819;SDS011;67762;52.476;6.046;2023-05-07T13:05:34;1999.90;;;999.90;;
43819;SDS011;67762;52.476;6.046;2023-05-07T13:08:00;1099.43;;;590.42;;
43819;SDS011;67762;52.476;6.046;2023-05-07T13:10:26;1999.90;;;999.90;;
43819;SDS011;67762;52.476;6.046;2023-05-07T13:12:52;1999.90;;;999.90;;
43819;SDS011;67762;52.476;6.046;2023-05-07T13:15:18;1999.90;;;999.90;;
43819;SDS011;67762;52.476;6.046;2023-05-07T13:17:44;1999.90;;;999.90;;
43819;SDS011;67762;52.476;6.046;2023-05-07T13:20:10;1999.90;;;999.90;;
43819;SDS011;67762;52.476;6.046;2023-05-07T13:22:37;1999.90;;;999.90;;
43819;SDS011;67762;52.476;6.046;2023-05-07T13:25:02;1999.90;;;999.90;;
43819;SDS011;67762;52.476;6.046;2023-05-07T13:27:28;1999.90;;;999.90;;
43819;SDS011;67762;52.476;6.046;2023-05-07T13:29:56;1999.90;;;999.90;;
43819;SDS011;67762;52.476;6.046;2023-05-07T13:32:22;1999.90;;;999.90;;
43819;SDS011;67762;52.476;6.046;2023-05-07T13:34:47;1999.90;;;999.90;;
43819;SDS011;67762;52.476;6.046;2023-05-07T13:37:13;1999.90;;;999.90;;
43819;SDS011;67762;52.476;6.046;2023-05-07T13:39:38;1999.90;;;999.90;;
43819;SDS011;67762;52.476;6.046;2023-05-07T13:42:04;1999.90;;;999.90;;
43819;SDS011;67762;52.476;6.046;2023-05-07T13:44:30;1999.90;;;999.90;;
43819;SDS011;67762;52.476;6.046;2023-05-07T13:46:55;1999.90;;;999.90;;
43819;SDS011;67762;52.476;6.046;2023-05-07T13:49:21;1999.90;;;999.90;;
43819;SDS011;67762;52.476;6.046;2023-05-07T13:51:46;1999.90;;;999.90;;
43819;SDS011;67762;52.476;6.046;2023-05-07T13:54:12;1999.90;;;999.90;;
43819;SDS011;67762;52.476;6.046;2023-05-07T13:56:38;1999.90;;;999.90;;
43819;SDS011;67762;52.476;6.046;2023-05-07T13:59:04;1999.90;;;999.90;;
43819;SDS011;67762;52.476;6.046;2023-05-07T14:01:30;1999.90;;;999.90;;
43819;SDS011;67762;52.476;6.046;2023-05-07T14:03:56;1999.90;;;999.90;;
43819;SDS011;67762;52.476;6.046;2023-05-07T14:06:23;1999.90;;;999.90;;
43819;SDS011;67762;52.476;6.046;2023-05-07T14:08:48;1999.90;;;999.90;;
43819;SDS011;67762;52.476;6.046;2023-05-07T14:11:14;1999.90;;;999.90;;
43819;SDS011;67762;52.476;6.046;2023-05-07T14:13:39;1999.90;;;999.90;;